createdAt,value
2019-03-08T00:01:21.918Z,5.23
2019-03-08T00:03:52.556Z,3.33
2019-03-08T00:06:23.097Z,4.20
2019-03-08T00:08:53.513Z,3.43
2019-03-08T00:11:23.961Z,5.23
2019-03-08T00:13:54.408Z,3.60
2019-03-08T00:16:25.063Z,6.03
2019-03-08T00:18:55.500Z,4.13
2019-03-08T00:21:26.040Z,4.77
2019-03-08T00:23:56.601Z,3.83
2019-03-08T00:26:27.108Z,4.87
2019-03-08T00:28:57.616Z,3.53
2019-03-08T00:31:28.168Z,3.20
2019-03-08T00:33:58.644Z,4.13
2019-03-08T00:36:29.224Z,4.83
2019-03-08T00:38:59.719Z,5.57
2019-03-08T00:41:30.147Z,4.67
2019-03-08T00:44:01.373Z,6.30
2019-03-08T00:46:31.880Z,3.97
2019-03-08T00:49:02.702Z,4.73
2019-03-08T00:51:33.090Z,6.63
2019-03-08T00:54:03.686Z,4.73
2019-03-08T00:56:35.169Z,6.13
2019-03-08T00:59:06.004Z,4.83
2019-03-08T01:01:36.404Z,4.87
2019-03-08T01:04:06.726Z,5.27
2019-03-08T01:06:37.194Z,4.27
2019-03-08T01:09:08.274Z,5.20
2019-03-08T01:11:39.991Z,3.90
2019-03-08T01:14:10.341Z,3.93
2019-03-08T01:16:40.761Z,5.83
2019-03-08T01:19:11.096Z,4.27
2019-03-08T01:21:41.561Z,3.53
2019-03-08T01:24:12.203Z,5.20
2019-03-08T01:26:42.788Z,5.20
2019-03-08T01:29:13.277Z,3.73
2019-03-08T01:31:43.852Z,4.33
2019-03-08T01:34:14.237Z,4.57
2019-03-08T01:36:46.596Z,5.17
2019-03-08T01:39:17.099Z,6.90
2019-03-08T01:41:47.493Z,4.40
2019-03-08T01:44:18.838Z,3.73
2019-03-08T01:46:49.232Z,3.90
2019-03-08T01:49:19.986Z,3.83
2019-03-08T01:51:50.320Z,4.53
2019-03-08T01:54:20.907Z,3.20
2019-03-08T01:56:52.463Z,6.40
2019-03-08T01:59:22.979Z,5.13
2019-03-08T02:01:53.609Z,5.57
2019-03-08T02:04:25.087Z,5.13
2019-03-08T02:06:55.582Z,4.20
2019-03-08T02:09:25.929Z,3.83
2019-03-08T02:11:56.329Z,4.17
2019-03-08T02:14:26.889Z,5.50
2019-03-08T02:16:57.408Z,4.80
2019-03-08T02:19:27.797Z,3.13
2019-03-08T02:21:58.556Z,2.97
2019-03-08T02:24:29.118Z,3.97
2019-03-08T02:27:00.124Z,2.80
2019-03-08T02:29:30.601Z,4.77
2019-03-08T02:32:01.181Z,3.70
2019-03-08T02:34:32.827Z,3.23
2019-03-08T02:37:03.292Z,5.10
2019-03-08T02:39:33.782Z,5.43
2019-03-08T02:42:04.238Z,2.43
2019-03-08T02:44:35.587Z,2.53
2019-03-08T02:47:06.179Z,3.57
2019-03-08T02:49:38.086Z,2.43
2019-03-08T02:52:08.632Z,3.77
2019-03-08T02:54:39.118Z,3.57
2019-03-08T02:57:09.882Z,3.80
2019-03-08T02:59:40.280Z,2.93
2019-03-08T03:02:11.029Z,2.23
2019-03-08T03:04:41.644Z,2.57
2019-03-08T03:07:12.054Z,4.63
2019-03-08T03:09:42.464Z,2.03
2019-03-08T03:12:12.831Z,3.20
2019-03-08T03:14:43.150Z,2.97
2019-03-08T03:17:15.030Z,2.53
2019-03-08T03:19:45.411Z,2.57
2019-03-08T03:22:15.985Z,2.00
2019-03-08T03:24:46.359Z,2.77
2019-03-08T03:27:16.658Z,3.80
2019-03-08T03:29:47.344Z,4.23
2019-03-08T03:32:17.843Z,3.63
2019-03-08T03:34:48.250Z,5.20
2019-03-08T03:37:18.772Z,3.40
2019-03-08T03:39:49.185Z,3.17
2019-03-08T03:42:19.636Z,2.97
2019-03-08T03:44:50.958Z,3.83
2019-03-08T03:47:21.449Z,2.97
2019-03-08T03:49:51.835Z,4.27
2019-03-08T03:52:22.334Z,3.57
2019-03-08T03:54:52.786Z,4.20
2019-03-08T03:57:23.197Z,5.03
2019-03-08T03:59:53.761Z,3.03
2019-03-08T04:02:24.193Z,2.17
2019-03-08T04:04:54.418Z,3.70
2019-03-08T04:07:24.948Z,1.20
2019-03-08T04:09:55.285Z,3.47
2019-03-08T04:12:25.676Z,2.13
2019-03-08T04:14:56.253Z,2.00
2019-03-08T04:17:26.644Z,3.77
2019-03-08T04:19:57.041Z,5.20
2019-03-08T04:22:27.550Z,2.33
2019-03-08T04:24:58.081Z,4.50
2019-03-08T04:27:28.576Z,3.10
2019-03-08T04:29:59.170Z,2.20
2019-03-08T04:32:29.564Z,4.73
2019-03-08T04:35:00.125Z,2.60
2019-03-08T04:37:30.708Z,5.60
2019-03-08T04:40:02.077Z,3.30
2019-03-08T04:42:33.710Z,2.90
2019-03-08T04:45:05.854Z,2.83
2019-03-08T04:47:36.273Z,2.27
2019-03-08T04:50:09.325Z,4.33
2019-03-08T04:52:39.765Z,2.07
2019-03-08T04:55:16.877Z,2.00
2019-03-08T04:57:48.086Z,3.67
2019-03-08T05:00:19.413Z,2.77
2019-03-08T05:02:49.745Z,5.50
2019-03-08T05:05:20.015Z,2.70
2019-03-08T05:07:50.614Z,3.97
2019-03-08T05:10:21.521Z,9.87
2019-03-08T05:12:51.851Z,8.43
2019-03-08T05:15:22.268Z,7.93
2019-03-08T05:17:52.728Z,6.77
2019-03-08T05:20:23.212Z,8.97
2019-03-08T05:22:53.827Z,6.00
2019-03-08T05:25:24.317Z,7.93
2019-03-08T05:27:54.710Z,5.07
2019-03-08T05:30:25.133Z,4.33
2019-03-08T05:32:55.596Z,4.77
2019-03-08T05:35:25.991Z,6.03
2019-03-08T05:37:56.281Z,6.80
2019-03-08T05:40:26.919Z,3.60
2019-03-08T05:42:58.318Z,4.63
2019-03-08T05:45:28.668Z,6.83
2019-03-08T05:47:59.439Z,8.17
2019-03-08T05:50:30.027Z,4.60
2019-03-08T05:53:00.579Z,3.77
2019-03-08T05:55:31.122Z,6.53
2019-03-08T05:58:01.481Z,6.30
2019-03-08T06:00:35.648Z,3.50
2019-03-08T06:03:06.579Z,6.87
2019-03-08T06:05:36.925Z,4.20
2019-03-08T06:08:07.457Z,6.23
2019-03-08T06:10:38.333Z,4.90
2019-03-08T06:13:08.662Z,3.40
2019-03-08T06:15:39.422Z,3.93
2019-03-08T06:18:09.811Z,3.90
2019-03-08T06:20:40.338Z,3.70
2019-03-08T06:23:10.773Z,7.70
2019-03-08T06:25:41.472Z,6.03
2019-03-08T06:28:12.152Z,4.10
2019-03-08T06:30:42.562Z,3.53
2019-03-08T06:33:12.958Z,5.50
2019-03-08T06:35:43.608Z,5.90
2019-03-08T06:38:13.933Z,4.67
2019-03-08T06:40:44.421Z,4.83
2019-03-08T06:43:15.173Z,6.30
2019-03-08T06:45:47.490Z,8.63
2019-03-08T06:48:17.969Z,6.37
2019-03-08T06:50:49.413Z,5.70
2019-03-08T06:53:20.085Z,8.00
2019-03-08T06:55:50.791Z,11.27
2019-03-08T06:58:25.589Z,9.17
2019-03-08T07:00:57.562Z,11.77
2019-03-08T07:03:28.181Z,6.40
2019-03-08T07:05:58.957Z,10.67
2019-03-08T07:08:30.960Z,11.83
2019-03-08T07:11:01.657Z,17.50
2019-03-08T07:13:32.290Z,10.73
2019-03-08T07:16:02.691Z,19.23
2019-03-08T07:18:34.230Z,14.30
2019-03-08T07:21:09.290Z,10.43
2019-03-08T07:24:00.991Z,112.07
2019-03-08T07:26:33.246Z,17.20
2019-03-08T07:29:14.482Z,12.27
2019-03-08T07:31:58.511Z,26.77
2019-03-08T07:34:30.561Z,17.17
2019-03-08T07:37:19.080Z,40.70
2019-03-08T07:39:56.757Z,23.97
2019-03-08T07:42:28.884Z,10.17
2019-03-08T07:45:03.895Z,23.13
2019-03-08T07:47:42.257Z,34.73
2019-03-08T07:50:17.654Z,28.57
2019-03-08T07:52:58.605Z,67.20
2019-03-08T07:55:46.771Z,31.93
2019-03-08T07:58:18.891Z,12.13
2019-03-08T08:00:54.134Z,37.53
2019-03-08T08:03:35.564Z,38.03
2019-03-08T08:06:19.488Z,48.00
2019-03-08T08:09:06.921Z,36.17
2019-03-08T08:11:45.994Z,49.03
2019-03-08T08:14:20.932Z,56.43
2019-03-08T08:17:08.114Z,28.70
2019-03-08T08:19:46.193Z,19.93
2019-03-08T08:22:24.376Z,22.10
2019-03-08T08:25:05.733Z,127.17
2019-03-08T08:27:44.082Z,8.27
2019-03-08T08:30:17.040Z,33.77
2019-03-08T08:32:55.082Z,48.70
2019-03-08T08:35:43.467Z,38.77
2019-03-08T08:38:24.793Z,30.63
2019-03-08T08:41:13.690Z,93.63
2019-03-08T08:43:51.878Z,110.67
2019-03-08T08:46:30.114Z,160.27
2019-03-08T08:49:05.047Z,43.00
2019-03-08T08:51:37.127Z,34.17
2019-03-08T08:54:18.310Z,82.90
2019-03-08T08:56:53.132Z,31.13
2019-03-08T08:59:37.622Z,137.50
2019-03-08T09:02:12.531Z,45.40
2019-03-08T09:04:44.627Z,125.93
2019-03-08T09:07:35.364Z,16.67
2019-03-08T09:10:10.831Z,29.30
2019-03-08T09:12:43.391Z,51.87
2019-03-08T09:15:18.168Z,113.13
2019-03-08T09:17:59.510Z,28.00
2019-03-08T09:20:48.383Z,123.67
2019-03-08T09:23:38.669Z,17.17
2019-03-08T09:26:27.232Z,7.50
2019-03-08T09:29:02.545Z,140.73
2019-03-08T09:31:49.817Z,72.50
2019-03-08T09:34:28.272Z,183.97
2019-03-08T09:37:03.432Z,126.90
2019-03-08T09:39:41.196Z,50.17
2019-03-08T09:42:19.274Z,16.63
2019-03-08T09:45:07.491Z,74.50
2019-03-08T09:47:51.418Z,235.27
2019-03-08T09:50:40.173Z,137.17
2019-03-08T09:53:21.062Z,48.03
2019-03-08T09:55:53.106Z,102.87
2019-03-08T09:58:31.072Z,14.50
2019-03-08T10:01:03.278Z,49.13
2019-03-08T10:03:38.215Z,205.30
2019-03-08T10:06:10.318Z,21.30
2019-03-08T10:08:51.640Z,134.13
2019-03-08T10:11:30.233Z,76.97
2019-03-08T10:14:02.467Z,140.73
2019-03-08T10:16:46.817Z,349.50
2019-03-08T10:19:25.992Z,275.77
2019-03-08T10:21:59.274Z,335.33
2019-03-08T10:24:31.510Z,88.53
2019-03-08T10:27:04.139Z,158.40
2019-03-08T10:29:36.732Z,155.20
2019-03-08T10:32:23.712Z,407.80
2019-03-08T10:34:55.901Z,144.50
2019-03-08T10:37:28.038Z,101.47
2019-03-08T10:40:10.123Z,73.17
2019-03-08T10:42:42.196Z,39.97
2019-03-08T10:45:20.182Z,99.80
2019-03-08T10:47:55.941Z,45.90
2019-03-08T10:50:42.446Z,10.20
2019-03-08T10:53:23.808Z,93.47
2019-03-08T10:55:55.830Z,154.13
2019-03-08T10:58:37.035Z,20.23
2019-03-08T11:01:18.233Z,50.50
2019-03-08T11:03:53.421Z,26.57
2019-03-08T11:06:29.038Z,166.63
2019-03-08T11:09:19.628Z,47.87
2019-03-08T11:12:00.783Z,72.97
2019-03-08T11:14:32.857Z,86.40
2019-03-08T11:17:07.692Z,86.23
2019-03-08T11:19:45.756Z,70.23
2019-03-08T11:22:26.781Z,56.20
2019-03-08T11:25:07.743Z,93.63
2019-03-08T11:27:32.983Z,127.97
2019-03-08T11:30:11.707Z,60.57
2019-03-08T11:32:54.672Z,147.10
2019-03-08T11:35:26.698Z,114.23
2019-03-08T11:38:04.646Z,115.60
2019-03-08T11:40:36.851Z,84.07
2019-03-08T11:43:09.271Z,56.17
2019-03-08T11:45:41.395Z,64.73
2019-03-08T11:48:13.617Z,194.13
2019-03-08T11:53:28.491Z,24.30
2019-03-08T11:56:18.278Z,35.00
2019-03-08T11:58:50.394Z,54.43
2019-03-08T12:01:35.893Z,39.27
2019-03-08T12:04:10.722Z,121.17
2019-03-08T12:06:48.897Z,137.33
2019-03-08T12:09:37.406Z,131.60
2019-03-08T12:12:26.968Z,70.83
2019-03-08T12:15:08.186Z,241.30
2019-03-08T12:17:49.665Z,206.83
2019-03-08T12:20:22.229Z,85.87
2019-03-08T12:22:54.455Z,74.20
2019-03-08T12:25:32.469Z,67.53
2019-03-08T12:28:04.632Z,39.67
2019-03-08T12:30:43.033Z,59.40
2019-03-08T12:33:18.071Z,23.50
2019-03-08T12:35:50.232Z,102.20
2019-03-08T12:38:29.768Z,132.43
2019-03-08T12:41:08.271Z,12.53
2019-03-08T12:43:52.285Z,21.07
2019-03-08T12:46:40.935Z,143.00
2019-03-08T12:49:13.023Z,8.00
2019-03-08T12:51:45.719Z,72.97
2019-03-08T12:54:28.078Z,10.17
2019-03-08T12:57:19.029Z,9.23
2019-03-08T12:59:51.636Z,2.20
2019-03-08T13:02:40.039Z,4.93
2019-03-08T13:05:12.169Z,10.57
2019-03-08T13:07:44.293Z,8.23
2019-03-08T13:10:15.673Z,4.67
2019-03-08T13:12:46.490Z,5.17
2019-03-08T13:15:17.679Z,5.60
2019-03-08T13:17:48.335Z,4.73
2019-03-08T13:20:18.970Z,8.27
2019-03-08T13:22:49.616Z,9.53
2019-03-08T13:25:21.448Z,8.53
2019-03-08T13:27:52.078Z,7.43
2019-03-08T13:30:25.980Z,4.40
2019-03-08T13:32:56.620Z,5.07
2019-03-08T13:35:28.850Z,4.60
2019-03-08T13:37:59.450Z,7.13
2019-03-08T13:40:30.157Z,6.00
2019-03-08T13:43:00.717Z,7.13
2019-03-08T13:45:31.442Z,5.60
2019-03-08T13:48:02.966Z,7.37
2019-03-08T13:50:34.142Z,10.27
2019-03-08T13:53:08.015Z,5.13
2019-03-08T13:55:39.549Z,8.70
2019-03-08T13:58:10.179Z,2.97
2019-03-08T14:00:40.690Z,2.90
2019-03-08T14:03:11.207Z,8.23
2019-03-08T14:05:41.954Z,5.90
2019-03-08T14:08:12.689Z,3.97
2019-03-08T14:10:43.280Z,4.03
2019-03-08T14:13:13.672Z,1.87
2019-03-08T14:15:44.281Z,5.23
2019-03-08T14:18:14.675Z,3.03
2019-03-08T14:20:45.439Z,3.93
2019-03-08T14:23:16.149Z,3.87
2019-03-08T14:25:46.569Z,3.40
2019-03-08T14:28:16.977Z,3.67
2019-03-08T14:30:57.548Z,4.43
2019-03-08T14:33:21.385Z,3.43
2019-03-08T14:35:51.739Z,5.70
2019-03-08T14:38:22.223Z,3.33
2019-03-08T14:40:57.435Z,5.50
2019-03-08T14:43:30.932Z,3.23
2019-03-08T14:46:03.109Z,3.60
2019-03-08T14:48:33.649Z,3.03
2019-03-08T14:51:04.063Z,3.67
2019-03-08T14:53:34.530Z,2.67
2019-03-08T14:56:05.092Z,4.53
2019-03-08T14:58:40.216Z,2.83
2019-03-08T15:01:08.731Z,3.53
2019-03-08T15:03:43.165Z,2.93
2019-03-08T15:06:11.493Z,2.53
2019-03-08T15:08:43.171Z,3.70
2019-03-08T15:11:13.602Z,4.23
2019-03-08T15:13:45.053Z,8.03
2019-03-08T15:16:15.692Z,4.20
2019-03-08T15:18:47.663Z,4.60
2019-03-08T15:21:18.568Z,4.67
2019-03-08T15:23:50.994Z,7.57
2019-03-08T15:26:21.137Z,7.37
2019-03-08T15:28:51.640Z,8.23
2019-03-08T15:31:22.249Z,3.47
2019-03-08T15:33:56.044Z,4.17
2019-03-08T15:36:26.701Z,4.60
2019-03-08T15:38:59.087Z,7.43
2019-03-08T15:41:29.719Z,6.27
2019-03-08T15:44:00.198Z,5.30
2019-03-08T15:46:30.714Z,7.00
2019-03-08T15:49:02.189Z,5.77
2019-03-08T15:51:32.719Z,6.10
2019-03-08T15:54:03.243Z,4.73
2019-03-08T15:56:35.086Z,4.20
2019-03-08T15:59:06.450Z,6.97
2019-03-08T16:01:37.019Z,4.93
2019-03-08T16:04:08.122Z,6.40
2019-03-08T16:06:43.656Z,7.23
2019-03-08T16:09:12.975Z,7.33
2019-03-08T16:11:43.512Z,6.73
2019-03-08T16:14:14.326Z,5.13
2019-03-08T16:16:44.974Z,4.70
2019-03-08T16:19:17.096Z,2.77
2019-03-08T16:21:50.665Z,6.77
2019-03-08T16:24:21.368Z,5.33
2019-03-08T16:26:51.951Z,5.57
2019-03-08T16:29:24.278Z,4.30
2019-03-08T16:32:00.001Z,5.77
2019-03-08T16:34:30.642Z,4.47
2019-03-08T16:37:09.399Z,5.50
2019-03-08T16:39:46.029Z,6.13
2019-03-08T16:42:18.415Z,6.93
2019-03-08T16:45:07.398Z,7.03
2019-03-08T16:47:42.553Z,6.90
2019-03-08T16:50:15.828Z,7.97
2019-03-08T16:52:48.131Z,12.80
2019-03-08T16:55:44.006Z,7.53
2019-03-08T16:58:22.749Z,8.10
2019-03-08T17:01:21.709Z,7.97
2019-03-08T17:04:00.040Z,6.33
2019-03-08T17:06:38.405Z,8.77
2019-03-08T17:09:21.432Z,9.67
2019-03-08T17:11:53.547Z,7.37
2019-03-08T17:14:41.875Z,8.40
2019-03-08T17:17:30.605Z,12.03
2019-03-08T17:20:18.026Z,10.90
2019-03-08T17:23:05.063Z,11.20
2019-03-08T17:25:40.214Z,10.30
2019-03-08T17:28:21.280Z,8.10
2019-03-08T17:31:09.789Z,8.70
2019-03-08T17:33:41.999Z,8.27
2019-03-08T17:36:14.822Z,10.50
2019-03-08T17:38:47.284Z,10.17
2019-03-08T17:41:35.945Z,9.00
2019-03-08T17:44:11.627Z,8.03
2019-03-08T17:46:50.435Z,8.87
2019-03-08T17:49:25.122Z,16.50
2019-03-08T17:52:34.328Z,13.57
2019-03-08T17:55:30.320Z,14.30
2019-03-08T17:58:13.601Z,10.07
2019-03-08T18:00:54.173Z,11.97
2019-03-08T18:03:40.331Z,7.13
2019-03-08T18:06:21.473Z,10.27
2019-03-08T18:08:56.714Z,7.07
2019-03-08T18:11:45.314Z,10.30
2019-03-08T18:17:29.084Z,15.73
2019-03-08T18:20:14.499Z,11.57
2019-03-08T18:22:47.609Z,10.37
2019-03-08T18:25:34.985Z,15.07
2019-03-08T18:28:25.698Z,13.90
2019-03-08T18:31:05.728Z,13.43
2019-03-08T18:33:54.584Z,28.70
2019-03-08T18:36:29.485Z,17.47
2019-03-08T18:39:03.463Z,24.23
2019-03-08T18:41:52.178Z,20.47
2019-03-08T18:44:25.139Z,19.27
2019-03-08T18:47:02.414Z,10.67
2019-03-08T18:49:36.670Z,12.57
2019-03-08T18:52:12.591Z,12.27
2019-03-08T18:54:58.814Z,15.67
2019-03-08T18:57:40.670Z,27.03
2019-03-08T19:00:25.717Z,39.67
2019-03-08T19:02:58.001Z,38.90
2019-03-08T19:05:30.426Z,17.97
2019-03-08T19:08:03.937Z,16.27
2019-03-08T19:10:42.478Z,16.70
2019-03-08T19:13:14.769Z,17.40
2019-03-08T19:15:59.914Z,16.00
2019-03-08T19:18:48.584Z,16.37
2019-03-08T19:21:32.432Z,15.47
2019-03-08T19:24:05.015Z,18.13
2019-03-08T19:26:50.988Z,15.73
2019-03-08T19:29:39.468Z,17.80
2019-03-08T19:32:18.363Z,14.17
2019-03-08T19:34:50.989Z,13.63
2019-03-08T19:37:29.519Z,23.97
2019-03-08T19:40:01.955Z,18.07
2019-03-08T19:42:50.591Z,16.80
2019-03-08T19:45:29.106Z,10.23
2019-03-08T19:48:17.730Z,12.77
2019-03-08T19:50:58.973Z,15.10
2019-03-08T19:53:47.815Z,17.20
2019-03-08T19:56:33.391Z,19.53
2019-03-08T19:59:10.885Z,18.13
2019-03-08T20:01:49.193Z,23.33
2019-03-08T20:04:22.266Z,20.30
2019-03-08T20:07:12.816Z,12.30
2019-03-08T20:09:52.898Z,16.87
2019-03-08T20:12:38.708Z,15.03
2019-03-08T20:15:19.983Z,13.90
2019-03-08T20:17:57.465Z,15.10
2019-03-08T20:20:36.155Z,17.97
2019-03-08T20:23:25.971Z,29.27
2019-03-08T20:25:59.020Z,16.00
2019-03-08T20:28:48.665Z,13.93
2019-03-08T20:31:25.479Z,15.90
2019-03-08T20:34:05.208Z,17.30
2019-03-08T20:36:44.951Z,14.07
2019-03-08T20:39:22.472Z,14.60
2019-03-08T20:42:02.222Z,16.57
2019-03-08T20:44:43.821Z,14.83
2019-03-08T20:47:22.618Z,12.73
2019-03-08T20:49:55.663Z,14.23
2019-03-08T20:52:27.234Z,14.87
2019-03-08T20:55:00.336Z,15.00
2019-03-08T20:57:32.429Z,19.70
2019-03-08T21:00:05.295Z,38.03
2019-03-08T21:02:36.609Z,57.23
2019-03-08T21:05:09.939Z,21.13
2019-03-08T21:07:42.818Z,13.10
2019-03-08T21:10:15.718Z,15.90
2019-03-08T21:12:46.922Z,19.13
2019-03-08T21:15:25.383Z,18.03
2019-03-08T21:17:57.129Z,17.70
2019-03-08T21:20:51.507Z,17.93
2019-03-08T21:23:23.029Z,16.90
2019-03-08T21:25:54.269Z,16.17
2019-03-08T21:28:25.479Z,15.53
2019-03-08T21:30:56.779Z,23.43
2019-03-08T21:33:27.663Z,17.40
2019-03-08T21:35:58.428Z,17.23
2019-03-08T21:38:30.859Z,24.50
2019-03-08T21:41:01.759Z,18.80
2019-03-08T21:43:32.424Z,15.80
2019-03-08T21:46:03.423Z,17.80
2019-03-08T21:48:35.724Z,19.77
2019-03-08T21:51:09.393Z,17.00
2019-03-08T21:53:42.324Z,18.43
2019-03-08T21:56:13.144Z,21.47
2019-03-08T21:58:45.273Z,21.93
2019-03-08T22:01:15.729Z,24.17
2019-03-08T22:03:49.948Z,20.07
2019-03-08T22:06:20.874Z,16.03
2019-03-08T22:09:00.584Z,19.03
2019-03-08T22:11:35.384Z,22.33
2019-03-08T22:14:08.498Z,17.97
2019-03-08T22:16:38.861Z,15.77
2019-03-08T22:19:09.620Z,16.40
2019-03-08T22:21:40.627Z,15.30
2019-03-08T22:24:13.664Z,17.13
2019-03-08T22:26:43.757Z,12.00
2019-03-08T22:29:14.191Z,16.07
2019-03-08T22:31:45.088Z,8.37
2019-03-08T22:34:16.716Z,15.80
2019-03-08T22:36:47.608Z,19.37
2019-03-08T22:39:18.397Z,13.37
2019-03-08T22:41:50.273Z,10.33
2019-03-08T22:44:22.225Z,10.13
2019-03-08T22:46:53.355Z,15.43
2019-03-08T22:49:24.210Z,9.77
2019-03-08T22:51:54.923Z,12.23
2019-03-08T22:54:25.905Z,8.47
2019-03-08T22:56:58.251Z,12.27
2019-03-08T22:59:30.313Z,13.60
2019-03-08T23:02:07.196Z,11.60
2019-03-08T23:04:38.123Z,10.57
2019-03-08T23:07:09.848Z,10.10
2019-03-08T23:09:40.613Z,14.87
2019-03-08T23:12:11.205Z,12.83
2019-03-08T23:14:41.631Z,12.80
2019-03-08T23:17:12.257Z,17.10
2019-03-08T23:19:43.176Z,9.77
2019-03-08T23:22:13.633Z,15.37
2019-03-08T23:24:44.185Z,11.30
2019-03-08T23:27:16.577Z,18.17
2019-03-08T23:29:48.659Z,12.50
2019-03-08T23:32:26.808Z,25.53
2019-03-08T23:34:57.373Z,12.57
2019-03-08T23:37:27.888Z,13.33
2019-03-08T23:39:58.664Z,12.60
2019-03-08T23:42:29.871Z,15.43
2019-03-08T23:45:00.372Z,11.20
2019-03-08T23:47:31.186Z,14.30
2019-03-08T23:50:01.565Z,14.07
2019-03-08T23:52:33.755Z,13.07
2019-03-08T23:55:08.108Z,14.53
2019-03-08T23:57:38.528Z,13.77
